Time;durP1;ratioP1;P1;durP2;ratioP2;P2;SDS_P1;SDS_P2;PMS_P1;PMS_P2;Temp;Humidity;BMP_temperature;BMP_pressure;BME280_temperature;BME280_humidity;BME280_pressure;Samples;Min_cycle;Max_cycle;Signal;HPM_P1;HPM_P2
2023/10/12 00:01:57;;;;;;;0.60;0.30;;;;;;;14.26;97.97;96198.31;5114049;28;20451;-56
2023/10/12 00:04:28;;;;;;;1.10;0.60;;;;;;;13.87;100.00;96155.47;5113327;28;20873;-56
2023/10/12 00:06:58;;;;;;;0.60;0.40;;;;;;;14.34;97.56;96191.66;5112864;28;20415;-56
2023/10/12 00:09:27;;;;;;;1.00;0.70;;;;;;;14.35;98.71;96206.56;5113144;28;20921;-54
2023/10/12 00:11:57;;;;;;;0.60;0.50;;;;;;;14.24;99.69;96203.13;5113475;28;20470;-54
2023/10/12 00:14:30;;;;;;;0.70;0.50;;;;;;;13.77;99.81;96142.16;5113300;28;20439;-54
2023/10/12 00:16:59;;;;;;;0.50;0.30;;;;;;;14.24;99.36;96203.13;5113468;28;20419;-54
2023/10/12 00:19:29;;;;;;;0.50;0.50;;;;;;;14.38;97.00;96198.03;5113154;28;20498;-54
2023/10/12 00:21:59;;;;;;;0.70;0.47;;;;;;;14.57;94.06;96197.16;5113373;28;20477;-54
2023/10/12 00:24:28;;;;;;;0.50;0.40;;;;;;;14.42;95.66;96196.44;5113025;28;20430;-54
2023/10/12 00:26:58;;;;;;;0.80;0.80;;;;;;;14.29;96.68;96197.78;5112732;28;20426;-55
2023/10/12 00:29:28;;;;;;;0.40;0.30;;;;;;;14.18;98.46;96195.38;5112075;28;20471;-54
2023/10/12 00:31:58;;;;;;;0.50;0.40;;;;;;;14.25;96.72;96185.22;5113347;28;20774;-54
2023/10/12 00:34:27;;;;;;;0.50;0.30;;;;;;;14.54;93.59;96187.06;5099648;28;20431;-55
2023/10/12 00:36:57;;;;;;;0.90;0.70;;;;;;;14.57;92.72;96189.16;5092901;28;20484;-54
2023/10/12 00:39:40;;;;;;;0.63;0.43;;;;;;;14.57;91.86;96188.38;5092788;28;20479;-54
2023/10/12 00:42:16;;;;;;;0.40;0.30;;;;;;;14.35;95.70;96180.72;5092950;28;20442;-55
2023/10/12 00:44:49;;;;;;;0.40;0.30;;;;;;;14.48;92.84;96182.00;5092470;28;21018;-54
2023/10/12 00:47:29;;;;;;;0.40;0.30;;;;;;;14.54;91.77;96175.59;5092787;28;20509;-54
2023/10/12 00:50:05;;;;;;;0.40;0.30;;;;;;;14.45;92.23;96172.66;5092377;28;20432;-54
2023/10/12 00:52:46;;;;;;;0.60;0.37;;;;;;;14.47;91.77;96177.75;5092445;28;20452;-54
2023/10/12 00:55:21;;;;;;;0.50;0.30;;;;;;;14.50;92.00;96169.19;5092590;28;20497;-54
2023/10/12 00:57:52;;;;;;;0.63;0.40;;;;;;;14.65;93.24;96163.78;5092351;28;20522;-55
2023/10/12 01:00:21;;;;;;;0.50;0.30;;;;;;;14.68;90.50;96165.09;5092172;28;20479;-55
2023/10/12 01:05:35;;;;;;;10.70;1.03;;;;;;;14.51;91.20;96168.94;5092036;28;20472;-55
2023/10/12 01:08:04;;;;;;;0.40;0.20;;;;;;;14.59;89.33;96155.03;5092220;28;20470;-55
2023/10/12 01:10:40;;;;;;;2.40;1.53;;;;;;;14.61;90.01;96163.53;5092443;28;20433;-55
2023/10/12 01:13:09;;;;;;;0.50;0.30;;;;;;;14.42;90.22;96167.88;5092186;28;20431;-55
2023/10/12 01:15:40;;;;;;;0.50;0.30;;;;;;;14.32;90.88;96165.25;5092133;28;20428;-55
2023/10/12 01:18:11;;;;;;;0.40;0.30;;;;;;;14.41;90.16;96174.31;5092059;28;20435;-55
2023/10/12 01:20:39;;;;;;;0.40;0.30;;;;;;;14.66;89.39;96165.38;5092073;28;20538;-55
2023/10/12 01:23:10;;;;;;;0.57;0.30;;;;;;;14.51;88.67;96160.91;5092126;28;20482;-55
2023/10/12 01:25:42;;;;;;;0.50;0.50;;;;;;;14.60;88.65;96174.47;5092352;28;20474;-55
2023/10/12 01:28:12;;;;;;;0.40;0.20;;;;;;;14.58;89.04;96173.97;5092118;28;20984;-55
2023/10/12 01:30:44;;;;;;;0.83;0.30;;;;;;;14.35;88.79;96148.69;5092268;28;20432;-55
2023/10/12 01:33:13;;;;;;;0.50;0.30;;;;;;;14.44;90.16;96151.63;5092001;28;20439;-55
2023/10/12 01:35:48;;;;;;;0.60;0.33;;;;;;;13.87;90.67;96096.84;5092036;28;20515;-55
2023/10/12 01:38:21;;;;;;;1.13;0.30;;;;;;;14.27;91.38;96157.22;5091880;28;20976;-55
2023/10/12 01:40:54;;;;;;;0.40;0.30;;;;;;;14.07;91.91;96132.50;5092239;28;20568;-55
2023/10/12 01:43:27;;;;;;;0.43;0.37;;;;;;;14.09;92.54;96165.03;5091803;28;20471;-55
2023/10/12 01:46:00;;;;;;;0.50;0.40;;;;;;;13.76;95.16;96163.75;5091892;28;20481;-55
2023/10/12 01:48:33;;;;;;;1.57;0.43;;;;;;;13.77;96.81;96162.66;5091839;28;20412;-55
2023/10/12 01:51:10;;;;;;;0.50;0.30;;;;;;;13.85;95.50;96164.78;5091807;28;20511;-53
2023/10/12 01:53:40;;;;;;;0.50;0.40;;;;;;;14.00;93.38;96162.91;5092111;28;20505;-54
2023/10/12 01:56:10;;;;;;;0.50;0.40;;;;;;;13.58;98.11;96164.28;5091720;28;20424;-54
2023/10/12 01:58:43;;;;;;;0.50;0.40;;;;;;;13.71;95.47;96161.09;5091663;28;20467;-54
2023/10/12 02:01:18;;;;;;;0.90;0.90;;;;;;;13.70;94.58;96154.97;5098098;28;20478;-54
2023/10/12 02:03:48;;;;;;;0.40;0.30;;;;;;;13.93;92.66;96161.59;5111786;28;20431;-54
2023/10/12 02:06:17;;;;;;;0.50;0.40;;;;;;;14.01;91.71;96156.50;5115053;28;20998;-55
2023/10/12 02:08:49;;;;;;;0.40;0.27;;;;;;;13.93;94.42;96158.91;5115812;28;20443;-55
2023/10/12 02:11:36;;;;;;;0.70;0.63;;;;;;;14.16;91.63;96165.53;5115490;28;20478;-55
2023/10/12 02:14:05;;;;;;;1.10;0.73;;;;;;;14.20;91.29;96163.91;5114656;28;20444;-55
2023/10/12 02:16:37;;;;;;;0.50;0.30;;;;;;;14.01;92.91;96155.72;5115841;28;20493;-55
2023/10/12 02:19:08;;;;;;;0.50;0.50;;;;;;;13.99;92.63;96155.16;5111083;28;20440;-55
2023/10/12 02:21:40;;;;;;;0.40;0.20;;;;;;;14.07;92.38;96164.47;5095326;28;21051;-55
2023/10/12 02:24:13;;;;;;;0.50;0.30;;;;;;;14.01;94.69;96169.03;5113365;28;20439;-55
2023/10/12 02:26:52;;;;;;;2.53;0.50;;;;;;;14.14;93.67;96149.78;5108460;28;21114;-54
2023/10/12 02:29:21;;;;;;;0.60;0.60;;;;;;;14.12;92.57;96161.78;5102982;28;20474;-55
2023/10/12 02:31:58;;;;;;;2.30;0.50;;;;;;;13.72;95.40;96165.34;5115074;28;20925;-55
2023/10/12 02:34:29;;;;;;;0.50;0.40;;;;;;;13.54;96.24;96168.53;5114814;28;20809;-55
2023/10/12 02:37:16;;;;;;;1.03;0.73;;;;;;;13.77;97.67;96157.34;5115019;28;20431;-55
2023/10/12 02:39:48;;;;;;;0.50;0.30;;;;;;;14.08;95.34;96150.09;5101978;28;20526;-55
2023/10/12 02:42:22;;;;;;;0.40;0.30;;;;;;;14.18;96.11;96156.19;5114660;28;20475;-55
2023/10/12 02:45:08;;;;;;;0.40;0.20;;;;;;;14.12;93.42;96153.81;5114793;28;20446;-55
2023/10/12 02:47:41;;;;;;;1.33;0.60;;;;;;;14.15;94.04;96162.06;5114514;28;20469;-55
2023/10/12 02:50:29;;;;;;;0.50;0.50;;;;;;;14.01;94.78;96145.06;5114661;28;20446;-54
2023/10/12 02:53:08;;;;;;;0.40;0.30;;;;;;;13.85;93.28;96111.50;5114884;27;20475;-54
2023/10/12 02:55:42;;;;;;;0.90;0.47;;;;;;;14.19;93.49;96146.34;5114500;28;20454;-54
2023/10/12 02:58:20;;;;;;;0.40;0.30;;;;;;;14.12;90.97;96143.13;5114576;28;20445;-54
2023/10/12 03:00:55;;;;;;;3.50;0.47;;;;;;;14.23;89.46;96144.72;5114446;28;20475;-54
2023/10/12 03:03:33;;;;;;;0.50;0.30;;;;;;;14.04;88.89;96135.72;5114294;28;20445;-54
2023/10/12 03:06:07;;;;;;;0.60;0.50;;;;;;;13.98;89.31;96151.72;5114612;28;20431;-55
2023/10/12 03:08:59;;;;;;;0.50;0.40;;;;;;;13.71;90.71;96143.22;5114162;28;20443;-53
2023/10/12 03:11:31;;;;;;;0.50;0.30;;;;;;;13.90;90.86;96152.25;5114328;28;20471;-54
2023/10/12 03:14:04;;;;;;;0.40;0.30;;;;;;;13.78;90.78;96143.75;5114494;28;20439;-54
2023/10/12 03:16:34;;;;;;;0.40;0.30;;;;;;;13.70;92.40;96128.31;5114097;28;21017;-54
2023/10/12 03:19:17;;;;;;;0.50;0.40;;;;;;;13.68;90.86;96135.78;5114112;28;21000;-54
2023/10/12 03:21:48;;;;;;;0.40;0.30;;;;;;;13.81;89.42;96145.88;5114227;28;20556;-55
2023/10/12 03:24:17;;;;;;;0.47;0.40;;;;;;;13.97;89.13;96142.13;5114054;28;20435;-54
2023/10/12 03:26:55;;;;;;;0.40;0.30;;;;;;;13.93;88.87;96149.06;5113882;28;20443;-55
2023/10/12 03:29:26;;;;;;;0.40;0.30;;;;;;;12.69;89.33;95967.84;5113635;28;20467;-55
2023/10/12 03:31:56;;;;;;;0.40;0.30;;;;;;;13.60;89.96;96141.66;5113864;28;20440;-55
2023/10/12 03:34:36;;;;;;;0.73;0.30;;;;;;;13.68;91.64;96138.44;5113732;28;20435;-54
2023/10/12 03:37:07;;;;;;;0.90;0.87;;;;;;;13.98;90.98;96137.59;5113840;28;20450;-55
2023/10/12 03:39:58;;;;;;;1.10;0.40;;;;;;;13.87;88.42;96136.81;5113746;28;20958;-54
2023/10/12 03:42:42;;;;;;;3.13;0.30;;;;;;;13.76;87.50;96126.44;5113680;28;21041;-55
2023/10/12 03:45:24;;;;;;;1.13;0.30;;;;;;;13.88;86.89;96146.41;5113745;28;21020;-55
2023/10/12 03:48:14;;;;;;;0.40;0.27;;;;;;;13.48;88.97;96149.13;5113486;28;20439;-54
2023/10/12 03:50:58;;;;;;;0.50;0.43;;;;;;;13.47;88.05;96152.84;5113198;28;20520;-54
2023/10/12 03:53:31;;;;;;;0.40;0.20;;;;;;;13.40;89.13;96154.97;5113413;28;20508;-54
2023/10/12 03:56:00;;;;;;;0.50;0.40;;;;;;;13.24;89.54;96151.50;5101145;28;20993;-54
2023/10/12 03:58:38;;;;;;;0.47;0.30;;;;;;;12.88;93.33;96163.09;5113586;28;20435;-54
2023/10/12 04:01:10;;;;;;;0.70;0.63;;;;;;;12.05;100.00;96172.06;5113416;28;20525;-54
2023/10/12 04:03:40;;;;;;;1.80;1.07;;;;;;;11.57;100.00;96172.25;5113269;28;20463;-53
2023/10/12 04:06:15;;;;;;;0.70;0.70;;;;;;;11.15;100.00;96169.53;5112965;28;20488;-55
2023/10/12 04:08:51;;;;;;;0.60;0.33;;;;;;;10.95;100.00;96172.78;5112777;28;20521;-54
2023/10/12 04:14:43;;;;;;;0.50;0.43;;;;;;;11.23;100.00;96174.38;5067880;28;20452;-54
2023/10/12 04:17:34;;;;;;;0.60;0.60;;;;;;;11.27;100.00;96172.81;5100341;28;20435;-54
2023/10/12 04:20:14;;;;;;;0.40;0.30;;;;;;;11.19;100.00;96173.25;5112730;28;20431;-54
2023/10/12 04:23:15;;;;;;;2.20;0.60;;;;;;;11.48;100.00;96180.69;5112341;28;20481;-54
2023/10/12 04:25:46;;;;;;;0.60;0.30;;;;;;;11.59;100.00;96178.91;5102306;28;20439;-54
2023/10/12 04:28:18;;;;;;;0.50;0.30;;;;;;;11.64;100.00;96172.84;5111778;28;20559;-54
2023/10/12 04:33:43;;;;;;;0.87;0.87;;;;;;;11.64;100.00;96180.81;5112538;28;20432;-54
2023/10/12 04:36:24;;;;;;;1.23;1.13;;;;;;;11.79;100.00;96181.75;5112405;28;20442;-55
2023/10/12 04:39:11;;;;;;;0.60;0.60;;;;;;;11.65;100.00;96175.25;5112482;28;20446;-53
2023/10/12 04:41:46;;;;;;;0.50;0.30;;;;;;;11.62;100.00;96175.75;5111929;28;20463;-54
2023/10/12 04:44:39;;;;;;;0.77;0.77;;;;;;;11.80;100.00;96180.69;5111653;28;20975;-54
2023/10/12 04:47:12;;;;;;;1.23;0.50;;;;;;;12.15;96.72;96181.97;5112296;28;20439;-54
2023/10/12 04:49:57;;;;;;;0.40;0.30;;;;;;;12.28;95.64;96186.81;5112140;28;20435;-54
2023/10/12 04:52:40;;;;;;;0.40;0.40;;;;;;;12.32;95.65;96183.38;5111862;28;20435;-53
2023/10/12 04:55:20;;;;;;;1.33;1.23;;;;;;;12.03;96.85;96179.50;5112301;28;20443;-54
2023/10/12 04:58:09;;;;;;;1.80;1.70;;;;;;;12.13;97.67;96192.06;5112362;28;20829;-56
2023/10/12 05:00:55;;;;;;;1.73;0.70;;;;;;;12.26;97.62;96184.44;5112297;28;20442;-54
2023/10/12 05:03:33;;;;;;;1.50;1.07;;;;;;;12.50;97.22;96184.78;5112247;28;21000;-54
2023/10/12 05:06:04;;;;;;;1.27;1.17;;;;;;;12.61;95.66;96197.88;5112377;28;20632;-54
2023/10/12 05:08:35;;;;;;;1.43;1.10;;;;;;;12.57;96.32;96196.78;5112343;28;20523;-54
2023/10/12 05:11:08;;;;;;;3.10;1.50;;;;;;;12.59;95.48;96194.69;5111959;28;20937;-54
2023/10/12 05:13:43;;;;;;;0.90;0.60;;;;;;;12.54;96.63;96189.34;5111714;28;20442;-54
2023/10/12 05:16:14;;;;;;;0.60;0.40;;;;;;;12.62;96.78;96196.03;5111639;28;21092;-54
2023/10/12 05:18:47;;;;;;;0.90;0.90;;;;;;;12.77;95.41;96203.25;5112093;28;20443;-53
2023/10/12 05:21:16;;;;;;;0.70;0.70;;;;;;;12.73;96.40;96201.13;5112172;28;20496;-53
2023/10/12 05:23:45;;;;;;;1.27;0.60;;;;;;;12.74;96.66;96210.72;5111841;28;20439;-53
2023/10/12 05:26:14;;;;;;;1.10;1.00;;;;;;;12.89;95.55;96207.28;5111947;28;20446;-53
2023/10/12 05:28:57;;;;;;;0.60;0.40;;;;;;;12.97;94.81;96212.09;5111636;28;20471;-53
2023/10/12 05:31:29;;;;;;;0.70;0.70;;;;;;;13.12;94.13;96216.69;5111889;28;20439;-53
2023/10/12 05:34:18;;;;;;;1.03;0.83;;;;;;;13.19;93.87;96219.91;5111807;28;20967;-53
2023/10/12 05:36:48;;;;;;;0.60;0.50;;;;;;;13.34;93.08;96219.94;5111855;28;20443;-53
2023/10/12 05:39:17;;;;;;;0.63;0.50;;;;;;;13.47;92.88;96211.44;5111632;28;20441;-53
2023/10/12 05:41:47;;;;;;;0.90;0.90;;;;;;;13.58;91.95;96213.03;5115866;28;20466;-53
2023/10/12 05:44:23;;;;;;;1.20;1.10;;;;;;;13.61;91.99;96217.81;5116004;28;20441;-52
2023/10/12 05:46:59;;;;;;;0.50;0.30;;;;;;;14.02;89.84;96213.28;5115514;28;20442;-52
2023/10/12 05:49:33;;;;;;;2.00;0.93;;;;;;;14.61;86.89;96210.78;5115724;28;20935;-52
2023/10/12 05:52:05;;;;;;;0.77;0.77;;;;;;;14.98;85.24;96213.81;5115540;28;20449;-53
2023/10/12 05:54:38;;;;;;;2.73;2.57;;;;;;;15.34;82.84;96214.41;5115792;28;20511;-53
2023/10/12 05:57:18;;;;;;;1.13;0.33;;;;;;;15.63;77.38;96218.00;5115954;28;20432;-53
2023/10/12 05:59:47;;;;;;;0.50;0.30;;;;;;;15.98;77.36;96211.53;5103404;28;20438;-53
2023/10/12 06:02:17;;;;;;;0.60;0.60;;;;;;;16.22;75.18;96209.69;5115564;28;20463;-54
2023/10/12 06:04:47;;;;;;;0.67;0.50;;;;;;;16.09;74.68;96205.00;5115555;28;20446;-56
2023/10/12 06:07:17;;;;;;;1.60;0.70;;;;;;;15.88;76.24;96211.63;5115335;28;20445;-56
2023/10/12 06:09:45;;;;;;;0.80;0.80;;;;;;;16.60;74.98;96212.53;5115817;28;20450;-56
2023/10/12 06:12:18;;;;;;;0.50;0.50;;;;;;;17.17;70.34;96206.22;5115410;28;20990;-55
2023/10/12 06:14:53;;;;;;;6.07;0.70;;;;;;;17.42;69.81;96212.03;5115366;28;20442;-56
2023/10/12 06:17:31;;;;;;;0.93;0.93;;;;;;;17.64;66.15;96209.56;5115392;28;20435;-56
2023/10/12 06:20:12;;;;;;;1.53;1.00;;;;;;;18.16;65.47;96211.13;5113784;28;20928;-56
2023/10/12 06:22:41;;;;;;;1.13;0.50;;;;;;;18.25;65.42;96209.34;5114891;28;20557;-56
2023/10/12 06:25:18;;;;;;;2.60;1.13;;;;;;;18.20;64.18;96205.97;5113318;28;20427;-56
2023/10/12 06:27:47;;;;;;;0.60;0.50;;;;;;;18.54;62.47;96197.59;5112895;28;20816;-56
2023/10/12 06:30:23;;;;;;;1.80;1.70;;;;;;;18.20;61.80;96190.66;5112321;28;21021;-57
2023/10/12 06:32:52;;;;;;;0.80;0.57;;;;;;;18.67;61.27;96199.50;5112114;28;20439;-56
2023/10/12 06:35:26;;;;;;;1.70;0.70;;;;;;;19.09;60.03;96192.97;5112517;28;20447;-55
2023/10/12 06:38:15;;;;;;;1.43;0.40;;;;;;;19.63;58.65;96192.88;5113067;28;20489;-55
2023/10/12 06:40:49;;;;;;;2.53;2.33;;;;;;;18.91;59.47;96202.75;5111873;28;20450;-55
2023/10/12 06:46:05;;;;;;;0.63;0.50;;;;;;;18.67;61.80;96194.88;5113779;28;20431;-55
2023/10/12 06:48:45;;;;;;;1.20;1.00;;;;;;;18.48;62.71;96202.25;5113886;28;20444;-55
2023/10/12 06:51:15;;;;;;;0.53;0.53;;;;;;;18.55;62.14;96197.28;5105174;28;20501;-53
2023/10/12 06:53:51;;;;;;;3.33;1.10;;;;;;;19.01;60.69;96195.28;5108937;28;20952;-54
2023/10/12 06:56:26;;;;;;;0.50;0.40;;;;;;;19.50;59.35;96196.41;5113517;28;20530;-54
2023/10/12 07:01:53;;;;;;;1.73;1.20;;;;;;;19.31;58.65;96198.38;5097739;28;20446;-53
2023/10/12 07:04:27;;;;;;;0.70;0.50;;;;;;;19.52;58.36;96192.31;5113882;28;20553;-54
2023/10/12 07:07:00;;;;;;;1.17;1.17;;;;;;;19.56;57.30;96195.97;5113621;28;20874;-54
2023/10/12 07:09:38;;;;;;;0.80;0.50;;;;;;;19.76;57.22;96194.69;5113524;28;20471;-54
2023/10/12 07:12:10;;;;;;;2.97;2.87;;;;;;;19.44;56.07;96133.06;5113236;28;20488;-54
2023/10/12 07:14:43;;;;;;;3.90;1.90;;;;;;;20.63;54.89;96197.59;5113237;28;20436;-55
2023/10/12 07:17:11;;;;;;;0.53;0.33;;;;;;;21.22;52.75;96173.81;5113358;28;20435;-54
2023/10/12 07:19:46;;;;;;;1.90;0.60;;;;;;;21.03;53.10;96147.13;5113501;28;20876;-55
2023/10/12 07:22:18;;;;;;;0.60;0.50;;;;;;;22.26;52.65;96178.06;5113279;28;20959;-55
2023/10/12 07:24:52;;;;;;;1.27;0.50;;;;;;;22.35;52.72;96174.22;5113577;28;20944;-55
2023/10/12 07:27:22;;;;;;;0.60;0.40;;;;;;;22.29;51.44;96180.13;5113604;28;20439;-55
2023/10/12 07:30:08;;;;;;;1.30;1.07;;;;;;;21.68;49.71;96117.31;5112933;28;20479;-55
2023/10/12 07:32:44;;;;;;;0.70;0.60;;;;;;;22.43;49.27;96172.59;5113226;28;20436;-54
2023/10/12 07:35:17;;;;;;;0.50;0.37;;;;;;;23.05;49.12;96183.59;5112992;28;20462;-54
2023/10/12 07:37:48;;;;;;;1.43;1.17;;;;;;;21.79;50.44;96171.75;5113008;28;20431;-53
2023/10/12 07:40:22;;;;;;;0.60;0.30;;;;;;;22.71;48.53;96162.97;5112832;28;20960;-53
2023/10/12 07:42:51;;;;;;;0.60;0.60;;;;;;;23.53;47.41;96162.28;5107217;28;20601;-53
2023/10/12 07:45:27;;;;;;;0.50;0.30;;;;;;;24.23;45.45;96163.25;5105676;28;20518;-54
2023/10/12 07:47:59;;;;;;;0.60;0.60;;;;;;;23.96;46.31;96165.41;5100167;28;20431;-53
2023/10/12 07:50:37;;;;;;;1.53;0.77;;;;;;;24.39;43.64;96145.22;5112577;28;20920;-53
2023/10/12 07:53:15;;;;;;;0.57;0.40;;;;;;;24.39;43.74;96156.06;5112829;28;20435;-53
2023/10/12 07:55:45;;;;;;;0.63;0.63;;;;;;;24.09;43.75;96154.63;5112903;28;20525;-53
2023/10/12 07:58:18;;;;;;;0.50;0.40;;;;;;;24.58;43.98;96151.69;5112560;28;20543;-53
2023/10/12 08:00:59;;;;;;;0.40;0.30;;;;;;;25.24;42.57;96144.09;5112221;28;20829;-53
2023/10/12 08:03:28;;;;;;;0.70;0.40;;;;;;;24.46;42.97;96145.47;5111754;28;20519;-53
2023/10/12 08:06:06;;;;;;;0.40;0.40;;;;;;;25.44;41.46;96139.66;5112431;28;20488;-53
2023/10/12 08:08:38;;;;;;;0.60;0.40;;;;;;;25.94;41.03;96138.34;5112060;28;20431;-54
2023/10/12 08:11:09;;;;;;;0.50;0.40;;;;;;;25.79;41.30;96094.50;5112701;28;20471;-53
2023/10/12 08:13:48;;;;;;;0.70;0.50;;;;;;;25.77;40.49;96132.09;5112459;28;20428;-53
2023/10/12 08:16:25;;;;;;;0.67;0.50;;;;;;;25.30;41.16;96108.59;5112306;28;20454;-53
2023/10/12 08:21:43;;;;;;;4.10;0.60;;;;;;;27.12;39.75;96108.31;5112322;28;20439;-54
2023/10/12 08:27:05;;;;;;;2.00;1.10;;;;;;;26.49;38.98;96098.28;5097359;28;20443;-54
2023/10/12 08:32:29;;;;;;;0.40;0.30;;;;;;;27.73;37.55;96104.56;5112009;28;20448;-54
2023/10/12 08:35:32;;;;;;;2.00;0.93;;;;;;;28.60;36.40;96103.81;5098843;28;20502;-54
2023/10/12 08:41:20;;;;;;;2.17;1.27;;;;;;;28.50;37.73;96096.22;5111514;28;20431;-54
2023/10/12 08:43:48;;;;;;;0.80;0.80;;;;;;;28.67;37.65;96097.69;5111674;28;20471;-53
2023/10/12 08:46:38;;;;;;;0.60;0.50;;;;;;;29.09;36.97;96094.81;5111358;28;20431;-54
2023/10/12 08:52:07;;;;;;;0.40;0.40;;;;;;;29.38;36.12;96077.66;5112290;28;20510;-54
2023/10/12 08:54:38;;;;;;;0.50;0.40;;;;;;;29.06;35.78;96077.22;5112530;28;20525;-53
2023/10/12 08:57:18;;;;;;;0.60;0.60;;;;;;;28.05;37.14;96071.69;5111978;28;20555;-56
2023/10/12 09:00:19;;;;;;;0.50;0.40;;;;;;;28.55;36.44;96074.09;5111972;28;20518;-57
2023/10/12 09:02:39;;;;;;;0.60;0.60;;;;;;;28.13;37.64;96068.72;5103089;28;20486;-59
2023/10/12 09:05:12;;;;;;;0.47;0.47;;;;;;;28.06;37.32;96065.06;5112512;28;20438;-57
2023/10/12 09:07:45;;;;;;;0.50;0.50;;;;;;;29.21;35.74;96051.72;5112189;28;20439;-58
2023/10/12 09:10:36;;;;;;;3.80;0.40;;;;;;;30.07;34.56;96049.59;5111824;28;21005;-59
2023/10/12 09:13:06;;;;;;;0.70;0.63;;;;;;;28.82;35.83;96042.97;5111728;28;20471;-58
2023/10/12 09:15:45;;;;;;;1.30;0.60;;;;;;;29.21;35.32;96038.06;5098838;28;20525;-53
2023/10/12 09:18:16;;;;;;;0.57;0.40;;;;;;;28.82;35.35;96023.06;5111916;28;20446;-54
2023/10/12 09:20:58;;;;;;;3.07;0.50;;;;;;;29.86;35.04;96032.97;5112280;28;20986;-54
2023/10/12 09:23:28;;;;;;;1.30;0.60;;;;;;;29.28;33.51;96031.91;5111924;28;20470;-54
2023/10/12 09:26:14;;;;;;;0.50;0.40;;;;;;;29.39;33.82;96030.09;5111816;28;20432;-55
2023/10/12 09:29:03;;;;;;;0.43;0.30;;;;;;;30.57;33.77;96022.66;5111526;28;20475;-53
2023/10/12 09:37:06;;;;;;;0.40;0.30;;;;;;;31.62;31.22;96007.97;5098128;28;20500;-57
2023/10/12 09:39:35;;;;;;;0.50;0.50;;;;;;;32.39;29.97;96010.03;5111856;28;21039;-55
2023/10/12 09:42:13;;;;;;;0.53;0.43;;;;;;;32.10;31.24;96014.75;5111620;28;20510;-54
2023/10/12 09:44:45;;;;;;;0.40;0.30;;;;;;;32.00;30.69;96001.81;5111885;28;20533;-53
2023/10/12 09:47:16;;;;;;;0.37;0.30;;;;;;;32.04;31.37;95997.09;5111699;28;20439;-54
2023/10/12 09:49:54;;;;;;;0.60;0.60;;;;;;;32.18;31.08;95993.59;5111434;28;20445;-54
2023/10/12 09:52:35;;;;;;;0.80;0.50;;;;;;;31.70;31.40;95985.66;5112028;28;20449;-54
2023/10/12 09:55:07;;;;;;;0.40;0.30;;;;;;;29.65;33.68;95986.25;5111798;28;20504;-54
2023/10/12 09:57:36;;;;;;;0.40;0.30;;;;;;;30.06;32.58;95976.91;5111533;28;20442;-55
2023/10/12 10:00:18;;;;;;;0.30;0.30;;;;;;;31.10;30.75;95968.22;5111613;28;20777;-55
2023/10/12 10:02:49;;;;;;;0.40;0.30;;;;;;;31.63;30.59;95962.94;5111228;28;20806;-55
2023/10/12 10:05:39;;;;;;;0.40;0.33;;;;;;;31.75;30.36;95949.66;5111209;28;20935;-55
2023/10/12 10:08:08;;;;;;;0.40;0.33;;;;;;;31.98;30.24;95952.00;5111788;28;20560;-55
2023/10/12 10:10:37;;;;;;;3.23;0.30;;;;;;;32.49;29.98;95949.66;5111466;28;20495;-55
2023/10/12 10:13:10;;;;;;;0.40;0.30;;;;;;;32.72;29.55;95940.22;5111969;28;20496;-55
2023/10/12 10:15:55;;;;;;;0.80;0.40;;;;;;;32.07;30.40;95905.03;5111606;28;20599;-54
2023/10/12 10:18:25;;;;;;;0.40;0.30;;;;;;;30.36;30.18;95812.66;5111505;28;20867;-56
2023/10/12 10:20:58;;;;;;;0.40;0.30;;;;;;;32.36;29.87;95940.25;5111309;28;21020;-55
2023/10/12 10:23:26;;;;;;;0.40;0.30;;;;;;;32.24;29.21;95931.66;5111522;28;20435;-55
2023/10/12 10:26:13;;;;;;;0.40;0.40;;;;;;;32.29;29.84;95929.31;5112535;28;20442;-56
2023/10/12 10:28:53;;;;;;;0.50;0.40;;;;;;;32.18;31.02;95923.03;5104227;28;20519;-56
2023/10/12 10:31:32;;;;;;;0.40;0.30;;;;;;;32.05;30.55;95916.41;5114644;28;20489;-55
2023/10/12 10:34:05;;;;;;;0.40;0.33;;;;;;;32.86;29.71;95901.75;5114933;28;20477;-55
2023/10/12 10:36:37;;;;;;;0.30;0.20;;;;;;;33.66;29.39;95905.28;5115114;28;20665;-55
2023/10/12 10:39:28;;;;;;;0.40;0.30;;;;;;;33.68;28.75;95883.66;5114775;27;20801;-55
2023/10/12 10:42:04;;;;;;;0.60;0.53;;;;;;;33.73;28.51;95895.00;5114578;28;20450;-55
2023/10/12 10:44:41;;;;;;;2.47;0.60;;;;;;;32.05;30.46;95888.19;5114658;28;20430;-55
2023/10/12 10:47:15;;;;;;;0.50;0.50;;;;;;;32.78;32.13;95890.00;5114775;28;20441;-54
2023/10/12 10:49:48;;;;;;;2.90;0.57;;;;;;;32.94;30.92;95884.06;5115172;28;20431;-55
2023/10/12 10:52:20;;;;;;;0.80;0.80;;;;;;;31.52;32.46;95874.47;5114424;28;20447;-54
2023/10/12 10:55:00;;;;;;;0.50;0.50;;;;;;;31.47;32.66;95874.84;5114682;28;20470;-55
2023/10/12 10:57:37;;;;;;;0.60;0.47;;;;;;;30.56;33.31;95870.63;5114440;28;20445;-54
2023/10/12 11:00:14;;;;;;;0.47;0.40;;;;;;;31.08;33.12;95861.84;5114332;28;20477;-55
2023/10/12 11:02:47;;;;;;;0.40;0.30;;;;;;;31.91;32.68;95848.59;5114390;28;20927;-55
2023/10/12 11:05:19;;;;;;;0.40;0.30;;;;;;;33.12;31.49;95854.53;5113887;28;20521;-55
2023/10/12 11:07:50;;;;;;;0.60;0.60;;;;;;;33.26;30.38;95838.00;5114527;28;20427;-55
2023/10/12 11:10:31;;;;;;;0.40;0.40;;;;;;;32.34;30.78;95845.81;5114394;27;20454;-54
2023/10/12 11:13:02;;;;;;;0.60;0.60;;;;;;;33.63;30.38;95840.88;5114564;27;20447;-55
2023/10/12 11:15:32;;;;;;;0.30;0.20;;;;;;;34.18;29.52;95831.78;5112017;28;20478;-55
2023/10/12 11:18:07;;;;;;;0.50;0.30;;;;;;;33.98;29.72;95823.28;5114231;28;20438;-54
2023/10/12 11:20:49;;;;;;;0.47;0.40;;;;;;;34.23;29.92;95823.84;5114094;28;20434;-54
2023/10/12 11:23:18;;;;;;;0.40;0.30;;;;;;;34.76;28.90;95825.97;5113749;28;20936;-55
2023/10/12 11:25:47;;;;;;;0.60;0.43;;;;;;;34.00;29.28;95811.88;5113958;28;20533;-55
2023/10/12 11:28:23;;;;;;;0.40;0.40;;;;;;;33.98;30.01;95817.78;5113229;28;20550;-54
2023/10/12 11:31:01;;;;;;;0.50;0.47;;;;;;;34.45;29.86;95813.38;5113953;28;20445;-55
2023/10/12 11:33:32;;;;;;;1.33;0.47;;;;;;;33.20;30.27;95812.91;5110782;28;20450;-54
2023/10/12 11:36:04;;;;;;;0.50;0.50;;;;;;;34.16;29.94;95806.63;5109253;28;20470;-55
2023/10/12 11:38:33;;;;;;;0.40;0.30;;;;;;;34.61;29.39;95801.81;5113572;28;20462;-54
2023/10/12 11:41:13;;;;;;;0.40;0.30;;;;;;;34.90;29.10;95798.28;5113380;27;20431;-54
2023/10/12 11:43:53;;;;;;;0.40;0.30;;;;;;;33.43;30.17;95797.81;5113656;28;20470;-55
2023/10/12 11:46:23;;;;;;;0.80;0.80;;;;;;;33.61;30.88;95787.47;5101366;28;20442;-55
2023/10/12 11:49:05;;;;;;;0.40;0.30;;;;;;;32.80;30.59;95782.50;5113269;28;20439;-55
2023/10/12 11:51:40;;;;;;;0.80;0.60;;;;;;;33.42;29.84;95790.78;5113044;28;20450;-55
2023/10/12 11:54:19;;;;;;;0.57;0.30;;;;;;;33.77;30.92;95780.28;5113090;28;20777;-55
2023/10/12 11:56:51;;;;;;;0.40;0.30;;;;;;;33.90;29.57;95764.03;5113012;28;20471;-55
2023/10/12 11:59:27;;;;;;;0.40;0.40;;;;;;;33.74;29.69;95774.81;5113523;28;20499;-55
2023/10/12 12:01:57;;;;;;;1.03;0.50;;;;;;;34.16;30.90;95757.09;5112906;28;20445;-54
2023/10/12 12:04:38;;;;;;;0.60;0.33;;;;;;;34.04;29.95;95754.84;5112738;28;20786;-55
2023/10/12 12:07:24;;;;;;;0.50;0.40;;;;;;;34.57;29.17;95768.03;5112893;28;20199;-54
2023/10/12 12:10:00;;;;;;;0.40;0.40;;;;;;;33.55;30.46;95762.41;5112648;28;20499;-56
2023/10/12 12:12:29;;;;;;;0.40;0.40;;;;;;;33.73;30.39;95760.25;5112907;28;20438;-55
2023/10/12 12:14:57;;;;;;;0.50;0.33;;;;;;;33.27;30.06;95638.94;5112750;28;20449;-55
2023/10/12 12:17:26;;;;;;;0.63;0.63;;;;;;;34.26;30.38;95754.22;5112996;28;20441;-55
2023/10/12 12:19:56;;;;;;;0.40;0.40;;;;;;;34.26;29.75;95750.69;5112334;28;20189;-54
2023/10/12 12:22:25;;;;;;;0.40;0.30;;;;;;;32.39;31.77;95752.09;5113049;28;20940;-54
2023/10/12 12:24:57;;;;;;;0.40;0.30;;;;;;;32.29;32.17;95742.75;5112642;28;20427;-54
2023/10/12 12:27:38;;;;;;;0.40;0.30;;;;;;;33.19;31.48;95742.63;5112819;28;20524;-55
2023/10/12 12:30:22;;;;;;;0.43;0.40;;;;;;;32.34;31.21;95739.59;5112563;28;20549;-55
2023/10/12 12:33:15;;;;;;;0.50;0.33;;;;;;;33.66;30.13;95723.81;5112330;28;20793;-53
2023/10/12 12:35:48;;;;;;;0.40;0.30;;;;;;;33.49;30.08;95692.53;5112371;28;21018;-55
2023/10/12 12:38:25;;;;;;;0.47;0.33;;;;;;;33.69;30.33;95723.78;5112040;28;20434;-55
2023/10/12 12:40:54;;;;;;;0.40;0.30;;;;;;;33.18;31.02;95718.31;5111327;28;20521;-55
2023/10/12 12:43:23;;;;;;;0.40;0.30;;;;;;;33.34;29.72;95709.56;5112707;28;20442;-55
2023/10/12 12:45:52;;;;;;;0.50;0.37;;;;;;;33.82;30.93;95713.03;5112329;28;20450;-55